createdAt,value
2023-05-23T00:02:31.813Z,13.46
2023-05-23T00:05:33.733Z,13.42
2023-05-23T00:08:35.355Z,13.40
2023-05-23T00:11:37.454Z,13.37
2023-05-23T00:14:40.328Z,13.37
2023-05-23T00:17:42.691Z,13.36
2023-05-23T00:20:46.878Z,13.37
2023-05-23T00:23:48.448Z,13.35
2023-05-23T00:26:50.043Z,13.34
2023-05-23T00:29:52.038Z,13.32
2023-05-23T00:32:54.596Z,13.30
2023-05-23T00:35:56.227Z,13.27
2023-05-23T00:38:57.807Z,13.26
2023-05-23T00:41:59.438Z,13.26
2023-05-23T00:45:01.100Z,13.26
2023-05-23T00:48:04.517Z,13.26
2023-05-23T00:51:06.295Z,13.24
2023-05-23T00:54:07.988Z,13.21
2023-05-23T00:57:09.612Z,13.19
2023-05-23T01:00:15.438Z,13.17
2023-05-23T01:03:18.375Z,13.16
2023-05-23T01:06:20.470Z,13.13
2023-05-23T01:09:27.452Z,13.11
2023-05-23T01:12:51.303Z,13.10
2023-05-23T01:15:59.825Z,13.06
2023-05-23T01:19:23.402Z,13.04
2023-05-23T01:22:42.071Z,13.00
2023-05-23T01:26:05.233Z,12.98
2023-05-23T01:29:24.446Z,12.97
2023-05-23T01:32:29.007Z,12.95
2023-05-23T01:35:31.749Z,12.95
2023-05-23T01:38:33.415Z,12.93
2023-05-23T01:41:35.013Z,12.91
2023-05-23T01:44:37.920Z,12.90
2023-05-23T01:47:41.384Z,12.88
2023-05-23T01:50:45.586Z,12.88
2023-05-23T01:53:47.154Z,12.87
2023-05-23T01:56:49.385Z,12.87
2023-05-23T01:59:51.247Z,12.84
2023-05-23T02:02:53.062Z,12.83
2023-05-23T02:05:54.706Z,12.83
2023-05-23T02:08:56.234Z,12.80
2023-05-23T02:11:57.877Z,12.80
2023-05-23T02:14:59.508Z,12.79
2023-05-23T02:18:03.255Z,12.79
2023-05-23T02:21:05.957Z,12.79
2023-05-23T02:24:07.552Z,12.79
2023-05-23T02:27:09.141Z,12.78
2023-05-23T02:30:11.206Z,12.77
2023-05-23T02:33:12.895Z,12.76
2023-05-23T02:36:14.756Z,12.72
2023-05-23T02:39:16.692Z,12.70
2023-05-23T02:42:18.262Z,12.70
2023-05-23T02:45:19.958Z,12.71
2023-05-23T02:48:21.615Z,12.71
2023-05-23T02:51:23.464Z,12.71
2023-05-23T02:54:25.077Z,12.69
2023-05-23T02:57:26.708Z,12.67
2023-05-23T03:00:29.559Z,12.66
2023-05-23T03:03:34.274Z,12.62
2023-05-23T03:06:36.890Z,12.59
2023-05-23T03:09:38.637Z,12.56
2023-05-23T03:12:40.893Z,12.53
2023-05-23T03:15:42.667Z,12.53
2023-05-23T03:18:44.474Z,12.52
2023-05-23T03:21:46.078Z,12.52
2023-05-23T03:24:47.712Z,12.52
2023-05-23T03:27:49.283Z,12.48
2023-05-23T03:30:50.820Z,12.45
2023-05-23T03:33:53.761Z,12.43
2023-05-23T03:36:55.311Z,12.41
2023-05-23T03:39:56.913Z,12.41
2023-05-23T03:43:05.859Z,12.41
2023-05-23T03:46:07.555Z,12.38
2023-05-23T03:49:09.123Z,12.38
2023-05-23T03:52:11.211Z,12.38
2023-05-23T03:55:12.924Z,12.37
2023-05-23T03:58:14.669Z,12.33
2023-05-23T04:01:16.245Z,12.32
2023-05-23T04:04:18.334Z,12.32
2023-05-23T04:07:20.091Z,12.30
2023-05-23T04:10:21.674Z,12.28
2023-05-23T04:13:24.947Z,12.26
2023-05-23T04:16:26.592Z,12.23
2023-05-23T04:19:28.296Z,12.22
2023-05-23T04:22:29.898Z,12.18
2023-05-23T04:25:31.459Z,12.15
2023-05-23T04:28:34.499Z,12.11
2023-05-23T04:31:36.092Z,12.10
2023-05-23T04:34:38.037Z,12.06
2023-05-23T04:37:40.230Z,12.02
2023-05-23T04:40:42.215Z,11.99
2023-05-23T04:43:44.391Z,11.96
2023-05-23T04:46:46.216Z,11.90
2023-05-23T04:49:48.042Z,11.89
2023-05-23T04:52:49.625Z,11.86
2023-05-23T04:55:51.444Z,11.82
2023-05-23T04:58:53.121Z,11.80
2023-05-23T05:01:54.731Z,11.77
2023-05-23T05:04:56.293Z,11.75
2023-05-23T05:07:57.907Z,11.71
2023-05-23T05:10:59.493Z,11.66
2023-05-23T05:14:01.085Z,11.63
2023-05-23T05:17:02.921Z,11.59
2023-05-23T05:20:08.823Z,11.56
2023-05-23T05:23:11.580Z,11.51
2023-05-23T05:26:13.229Z,11.48
2023-05-23T05:29:15.564Z,11.45
2023-05-23T05:32:17.133Z,11.40
2023-05-23T05:35:18.842Z,11.40
2023-05-23T05:38:20.634Z,11.36
2023-05-23T05:41:22.392Z,11.32
2023-05-23T05:44:23.961Z,11.29
2023-05-23T05:47:25.964Z,11.26
2023-05-23T05:50:27.752Z,11.24
2023-05-23T05:53:29.326Z,11.18
2023-05-23T05:56:30.951Z,11.15
2023-05-23T05:59:32.731Z,11.18
2023-05-23T06:02:34.438Z,11.18
2023-05-23T06:05:37.557Z,11.16
2023-05-23T06:08:39.195Z,11.14
2023-05-23T06:11:41.333Z,11.12
2023-05-23T06:14:42.960Z,11.06
2023-05-23T06:17:44.991Z,11.02
2023-05-23T06:20:46.627Z,10.97
2023-05-23T06:23:48.272Z,10.91
2023-05-23T06:26:49.857Z,10.87
2023-05-23T06:29:51.464Z,10.85
2023-05-23T06:32:53.077Z,10.82
2023-05-23T06:35:54.762Z,10.80
2023-05-23T06:38:56.341Z,10.77
2023-05-23T06:41:58.017Z,10.76
2023-05-23T06:44:59.710Z,10.74
2023-05-23T06:48:01.464Z,10.72
2023-05-23T06:51:03.497Z,10.70
2023-05-23T06:54:05.545Z,10.67
2023-05-23T06:57:07.164Z,10.64
2023-05-23T07:00:09.403Z,10.62
2023-05-23T07:03:11.114Z,10.61
2023-05-23T07:06:13.152Z,10.61
2023-05-23T07:09:14.753Z,10.61
2023-05-23T07:12:16.443Z,10.60
2023-05-23T07:15:18.084Z,10.57
2023-05-23T07:18:20.520Z,10.55
2023-05-23T07:21:22.138Z,10.51
2023-05-23T07:24:25.312Z,10.46
2023-05-23T07:27:27.366Z,10.44
2023-05-23T07:30:29.918Z,10.43
2023-05-23T07:33:34.626Z,10.37
2023-05-23T07:36:37.917Z,10.33
2023-05-23T07:39:39.636Z,10.29
2023-05-23T07:42:41.219Z,10.26
2023-05-23T07:45:42.822Z,10.23
2023-05-23T07:48:44.423Z,10.19
2023-05-23T07:51:46.132Z,10.15
2023-05-23T07:54:47.777Z,10.13
2023-05-23T07:57:49.622Z,10.09
2023-05-23T08:00:52.898Z,10.06
2023-05-23T08:03:55.103Z,10.05
2023-05-23T08:10:02.411Z,9.99
2023-05-23T08:13:07.007Z,9.94
2023-05-23T08:16:08.643Z,9.91
2023-05-23T08:19:10.416Z,9.89
2023-05-23T08:22:12.046Z,9.88
2023-05-23T08:25:13.603Z,9.88
2023-05-23T08:28:15.411Z,9.86
2023-05-23T08:31:17.968Z,9.86
2023-05-23T08:34:20.033Z,9.88
2023-05-23T08:37:23.218Z,9.89
2023-05-23T08:40:30.382Z,9.89
2023-05-23T08:43:33.718Z,9.88
2023-05-23T08:46:41.500Z,9.89
2023-05-23T08:49:44.170Z,9.88
2023-05-23T08:52:51.752Z,9.85
2023-05-23T08:55:55.729Z,9.83
2023-05-23T08:58:58.390Z,9.84
2023-05-23T09:02:00.756Z,9.84
2023-05-23T09:05:02.598Z,9.84
2023-05-23T09:08:04.392Z,9.83
2023-05-23T09:11:06.934Z,9.84
2023-05-23T09:14:08.970Z,9.83
2023-05-23T09:17:10.560Z,9.85
2023-05-23T09:20:17.560Z,9.85
2023-05-23T09:23:19.629Z,9.86
2023-05-23T09:26:21.392Z,9.89
2023-05-23T09:29:23.062Z,9.88
2023-05-23T09:32:24.710Z,9.85
2023-05-23T09:35:28.530Z,9.83
2023-05-23T09:38:30.196Z,9.85
2023-05-23T09:41:35.624Z,9.88
2023-05-23T09:44:42.818Z,9.90
2023-05-23T09:47:53.638Z,9.91
2023-05-23T09:50:55.997Z,9.93
2023-05-23T09:53:57.627Z,9.95
2023-05-23T09:57:01.348Z,10.02
2023-05-23T10:00:11.544Z,10.06
2023-05-23T10:03:17.469Z,10.12
2023-05-23T10:06:42.912Z,10.23
2023-05-23T10:09:59.864Z,10.33
2023-05-23T10:13:06.089Z,10.41
2023-05-23T10:16:13.970Z,10.52
2023-05-23T10:19:26.421Z,10.59
2023-05-23T10:22:28.778Z,10.68
2023-05-23T10:25:30.994Z,10.85
2023-05-23T10:28:33.646Z,11.04
2023-05-23T10:31:36.471Z,11.07
2023-05-23T10:34:41.931Z,11.04
2023-05-23T10:38:07.812Z,11.00
2023-05-23T10:41:36.728Z,10.97
2023-05-23T10:44:38.343Z,10.92
2023-05-23T10:47:40.093Z,10.90
2023-05-23T10:50:42.332Z,10.87
2023-05-23T10:53:46.560Z,10.90
2023-05-23T10:57:02.945Z,10.91
2023-05-23T11:00:05.854Z,10.96
2023-05-23T11:03:09.250Z,10.99
2023-05-23T11:06:48.305Z,11.00
2023-05-23T11:10:05.578Z,11.02
2023-05-23T11:13:07.794Z,10.99
2023-05-23T11:16:25.720Z,10.97
2023-05-23T11:19:29.472Z,10.96
2023-05-23T11:22:31.519Z,10.96
2023-05-23T11:25:59.601Z,11.01
2023-05-23T11:29:04.014Z,11.02
2023-05-23T11:32:16.006Z,11.07
2023-05-23T11:35:19.260Z,11.11
2023-05-23T11:38:21.217Z,11.13
2023-05-23T11:41:22.809Z,11.17
2023-05-23T11:44:24.413Z,11.23
2023-05-23T11:47:26.177Z,11.28
2023-05-23T11:50:27.827Z,11.37
2023-05-23T11:53:30.302Z,11.46
2023-05-23T11:56:32.178Z,11.51
2023-05-23T11:59:34.158Z,11.55
2023-05-23T12:02:42.744Z,11.64
2023-05-23T12:05:45.582Z,11.68
2023-05-23T12:08:47.982Z,11.67
2023-05-23T12:11:50.144Z,11.66
2023-05-23T12:14:56.426Z,11.63
2023-05-23T12:17:58.383Z,11.62
2023-05-23T12:21:01.476Z,11.61
2023-05-23T12:24:31.643Z,11.57
2023-05-23T12:27:35.686Z,11.56
2023-05-23T12:30:44.436Z,11.57
2023-05-23T12:33:48.030Z,11.59
2023-05-23T12:36:55.017Z,11.60
2023-05-23T12:40:15.433Z,11.58
2023-05-23T12:43:17.084Z,11.56
2023-05-23T12:46:19.758Z,11.58
2023-05-23T12:49:21.947Z,11.63
2023-05-23T12:52:23.616Z,11.67
2023-05-23T12:55:25.497Z,11.72
2023-05-23T12:58:29.725Z,11.77
2023-05-23T13:01:34.563Z,11.80
2023-05-23T13:04:36.364Z,11.81
2023-05-23T13:07:38.007Z,11.83
2023-05-23T13:10:41.118Z,11.87
2023-05-23T13:13:42.811Z,11.94
2023-05-23T13:16:45.686Z,11.97
2023-05-23T13:19:47.338Z,11.97
2023-05-23T13:22:49.883Z,11.92
2023-05-23T13:25:51.883Z,11.90
2023-05-23T13:28:53.584Z,11.88
2023-05-23T13:31:55.350Z,11.87
2023-05-23T13:34:56.938Z,11.90
2023-05-23T13:37:58.550Z,12.02
2023-05-23T13:41:00.266Z,12.21
2023-05-23T13:44:01.864Z,12.32
2023-05-23T13:47:13.125Z,12.36
2023-05-23T13:50:15.103Z,12.36
2023-05-23T13:53:17.904Z,12.38
2023-05-23T13:56:20.406Z,12.37
2023-05-23T13:59:22.803Z,12.39
2023-05-23T14:02:24.486Z,12.39
2023-05-23T14:05:27.607Z,12.38
2023-05-23T14:08:29.362Z,12.41
2023-05-23T14:11:31.194Z,12.49
2023-05-23T14:14:32.814Z,12.63
2023-05-23T14:17:34.458Z,12.62
2023-05-23T14:20:36.509Z,12.54
2023-05-23T14:23:38.183Z,12.43
2023-05-23T14:26:39.834Z,12.30
2023-05-23T14:29:46.327Z,12.21
2023-05-23T14:32:48.041Z,12.14
2023-05-23T14:35:50.052Z,12.10
2023-05-23T14:38:51.798Z,12.09
2023-05-23T14:41:54.306Z,12.07
2023-05-23T14:44:57.009Z,12.05
2023-05-23T14:47:59.813Z,12.04
2023-05-23T14:51:02.797Z,11.97
2023-05-23T14:54:06.507Z,12.00
2023-05-23T14:57:09.543Z,11.99
2023-05-23T15:00:14.136Z,11.96
2023-05-23T15:03:17.420Z,11.89
2023-05-23T15:06:19.102Z,11.83
2023-05-23T15:09:20.710Z,11.79
2023-05-23T15:12:22.374Z,11.79
2023-05-23T15:15:24.057Z,11.82
2023-05-23T15:18:39.605Z,11.82
2023-05-23T15:21:50.531Z,11.80
2023-05-23T15:24:53.000Z,11.78
2023-05-23T15:27:54.717Z,11.74
2023-05-23T15:30:57.210Z,11.72
2023-05-23T15:33:58.816Z,11.73
2023-05-23T15:37:00.643Z,11.72
2023-05-23T15:40:02.570Z,11.70
2023-05-23T15:43:04.295Z,11.68
2023-05-23T15:46:05.882Z,11.71
2023-05-23T15:49:21.301Z,11.79
2023-05-23T15:52:28.673Z,11.87
2023-05-23T15:55:30.875Z,11.90
2023-05-23T15:58:32.525Z,11.88
2023-05-23T16:01:34.681Z,11.82
2023-05-23T16:04:36.579Z,11.76
2023-05-23T16:07:38.889Z,11.69
2023-05-23T16:10:40.562Z,11.66
2023-05-23T16:13:42.241Z,11.68
2023-05-23T16:16:44.144Z,11.66
2023-05-23T16:19:45.806Z,11.59
2023-05-23T16:22:47.477Z,11.55
2023-05-23T16:25:49.286Z,11.50
2023-05-23T16:28:50.879Z,11.42
2023-05-23T16:31:52.467Z,11.36
2023-05-23T16:34:54.836Z,11.32
2023-05-23T16:37:56.532Z,11.32
2023-05-23T16:40:59.043Z,11.35
2023-05-23T16:44:02.033Z,11.40
2023-05-23T16:47:05.160Z,11.44
2023-05-23T16:50:09.315Z,11.46
2023-05-23T16:53:11.125Z,11.47
2023-05-23T16:56:12.757Z,11.47
2023-05-23T16:59:14.370Z,11.48
2023-05-23T17:02:16.216Z,11.49
2023-05-23T17:05:17.839Z,11.49
2023-05-23T17:08:19.644Z,11.47
2023-05-23T17:11:21.763Z,11.46
2023-05-23T17:14:24.056Z,11.44
2023-05-23T17:17:26.588Z,11.40
2023-05-23T17:20:28.296Z,11.32
2023-05-23T17:23:30.808Z,11.25
2023-05-23T17:26:33.830Z,11.18
2023-05-23T17:29:35.836Z,11.10
2023-05-23T17:32:38.130Z,11.02
2023-05-23T17:35:40.362Z,10.93
2023-05-23T17:38:43.202Z,10.87
2023-05-23T17:41:44.858Z,10.81
2023-05-23T17:44:46.433Z,10.75
2023-05-23T17:47:48.085Z,10.69
2023-05-23T17:50:49.756Z,10.64
2023-05-23T17:53:53.771Z,10.59
2023-05-23T17:56:55.762Z,10.53
2023-05-23T17:59:58.390Z,10.47
2023-05-23T18:03:02.669Z,10.41
2023-05-23T18:06:04.573Z,10.34
2023-05-23T18:09:06.364Z,10.24
2023-05-23T18:12:08.024Z,10.17
2023-05-23T18:15:10.287Z,10.14
2023-05-23T18:18:12.187Z,10.08
2023-05-23T18:21:14.023Z,10.03
2023-05-23T18:24:16.533Z,10.02
2023-05-23T18:27:18.214Z,9.99
2023-05-23T18:30:19.858Z,9.96
2023-05-23T18:33:21.899Z,9.93
2023-05-23T18:36:23.709Z,9.89
2023-05-23T18:39:25.583Z,9.85
2023-05-23T18:42:28.643Z,9.83
2023-05-23T18:45:31.672Z,9.79
2023-05-23T18:48:35.750Z,9.75
2023-05-23T18:51:38.773Z,9.71
2023-05-23T18:54:42.898Z,9.67
2023-05-23T18:57:46.736Z,9.64
2023-05-23T19:00:51.014Z,9.63
2023-05-23T19:03:54.417Z,9.60
2023-05-23T19:06:58.213Z,9.57
2023-05-23T19:09:59.988Z,9.55
2023-05-23T19:13:02.462Z,9.49
2023-05-23T19:16:05.787Z,9.46
2023-05-23T19:19:07.569Z,9.44
2023-05-23T19:22:09.689Z,9.42
2023-05-23T19:25:12.119Z,9.39
2023-05-23T19:28:17.533Z,9.36
2023-05-23T19:31:20.475Z,9.41
2023-05-23T19:34:24.215Z,9.35
2023-05-23T19:37:28.640Z,9.32
2023-05-23T19:40:31.817Z,9.27
2023-05-23T19:43:35.334Z,9.25
2023-05-23T19:46:38.514Z,9.22
2023-05-23T19:49:40.266Z,9.18
2023-05-23T19:52:42.211Z,9.13
2023-05-23T19:55:43.859Z,9.11
2023-05-23T19:58:45.636Z,9.08
2023-05-23T20:01:47.252Z,9.05
2023-05-23T20:04:48.993Z,9.02
2023-05-23T20:07:50.636Z,9.00
2023-05-23T20:10:52.337Z,8.98
2023-05-23T20:13:53.932Z,8.95
2023-05-23T20:16:56.141Z,8.94
2023-05-23T20:19:57.783Z,8.95
2023-05-23T20:22:59.558Z,8.92
2023-05-23T20:26:02.228Z,8.89
2023-05-23T20:29:03.903Z,8.87
2023-05-23T20:32:05.861Z,8.88
2023-05-23T20:35:09.009Z,8.85
2023-05-23T20:38:11.521Z,8.86
2023-05-23T20:41:14.341Z,8.85
2023-05-23T20:44:17.448Z,8.85
2023-05-23T20:47:20.185Z,8.85
2023-05-23T20:50:22.818Z,8.84
2023-05-23T20:53:24.559Z,8.83
2023-05-23T20:56:27.536Z,8.81
2023-05-23T20:59:30.504Z,8.77
2023-05-23T21:02:32.193Z,8.73
2023-05-23T21:05:33.986Z,8.69
2023-05-23T21:08:35.611Z,8.66
2023-05-23T21:11:38.493Z,8.64
2023-05-23T21:14:40.079Z,8.64
2023-05-23T21:17:41.761Z,8.62
2023-05-23T21:20:43.669Z,8.60
2023-05-23T21:23:45.488Z,8.58
2023-05-23T21:26:47.335Z,8.55
2023-05-23T21:29:48.931Z,8.52
2023-05-23T21:32:50.707Z,8.51
2023-05-23T21:35:52.545Z,8.50
2023-05-23T21:38:54.103Z,8.49
2023-05-23T21:41:55.696Z,8.48
2023-05-23T21:44:57.240Z,8.47
2023-05-23T21:47:58.926Z,8.42
2023-05-23T21:51:00.675Z,8.39
2023-05-23T21:54:02.272Z,8.38
2023-05-23T21:57:04.252Z,8.37
2023-05-23T22:00:12.142Z,8.36
2023-05-23T22:03:13.980Z,8.34
2023-05-23T22:06:15.844Z,8.34
2023-05-23T22:09:18.359Z,8.35
2023-05-23T22:12:20.579Z,8.43
2023-05-23T22:15:22.238Z,8.82
2023-05-23T22:18:27.648Z,8.92
2023-05-23T22:21:30.723Z,8.91
2023-05-23T22:24:32.316Z,8.87
2023-05-23T22:27:34.323Z,8.80
2023-05-23T22:30:35.944Z,8.74
2023-05-23T22:33:37.594Z,8.67
2023-05-23T22:36:39.150Z,8.60
2023-05-23T22:39:40.803Z,8.53
2023-05-23T22:42:42.530Z,8.47
2023-05-23T22:45:44.454Z,8.40
2023-05-23T22:48:46.064Z,8.34
2023-05-23T22:51:48.513Z,8.29
2023-05-23T22:54:50.089Z,8.26
2023-05-23T22:57:51.742Z,8.21
2023-05-23T23:00:53.356Z,8.17
2023-05-23T23:03:55.042Z,8.14
2023-05-23T23:06:59.184Z,8.11
2023-05-23T23:10:00.883Z,8.11
2023-05-23T23:13:02.518Z,8.10
2023-05-23T23:16:04.138Z,8.08
2023-05-23T23:19:05.807Z,8.04
2023-05-23T23:22:07.610Z,7.99
2023-05-23T23:25:12.347Z,7.98
2023-05-23T23:28:13.918Z,7.96
2023-05-23T23:31:15.546Z,7.92
2023-05-23T23:34:17.155Z,7.90
2023-05-23T23:37:18.849Z,7.89
2023-05-23T23:40:20.419Z,7.87
2023-05-23T23:43:21.966Z,7.85
2023-05-23T23:46:23.599Z,7.84
2023-05-23T23:49:25.604Z,7.84
2023-05-23T23:52:28.136Z,7.81
2023-05-23T23:55:30.196Z,7.80
2023-05-23T23:58:32.108Z,7.79
